Ship Status Report: callsign AMOUK40

sailwx.info

Track history (hours):
 
Tides and Currents Weather Stations Pressure Air Temp Water Temp Dewpoint Dewpoint Depression Visibility Wind Speed Wind Dir Waves Ship Positions

Callsign AMOUK40 (name unknown)

Last reported at 2014-Jan-07 02:00 UTC. Time now 2014-Jul-22 17:29 UTC.
Position S 66°30' W 070°06'.
Warning: this ship's position is months out of date.

Barometer 993.6 mb
Air temperature -1.1 ° C
Dewpoint -1.6 ° C

Date/timePositionNaut miles runAvg speedWind from/ knotsBaromVisibWave heightAir tempDewpointWater temp
2014-Jan-07 02:00S 66°30' W 070°06'6 6.5 993.6 -1.1-1.6
2014-Jan-07 01:00S 66°36' W 070°12'2 2.4 993.2 -1.0-1.7
2014-Jan-07 00:00S 66°36' W 070°18'2 2.4 992.9 -0.8-1.6
2014-Jan-06 23:00S 66°36' W 070°24'0 0.0 992.9 -3.6
2014-Jan-06 22:00S 66°36' W 070°24'0 0.0 992.7 -0.2-3.2
2014-Jan-06 19:00S 66°36' W 070°24'6 6.5 991.7 0.7-3.6
2014-Jan-06 18:00S 66°42' W 070°30'6 6.5 991.5 1.2-3.6
2014-Jan-06 17:00S 66°36' W 070°36'82 2.8 991.4 0.9-3.8
2014-Jan-05 12:00S 67°36' W 068°12'2 2.3 988.5 0.5-7.7
2014-Jan-05 11:00S 67°36' W 068°06'0 0.0 988.3 2.0-7.0
2014-Jan-05 10:00S 67°36' W 068°06'0 0.0 988.2 1.5-7.3
2014-Jan-05 09:00S 67°36' W 068°06'0 0.0 987.9 1.2-6.8
2014-Jan-05 08:00S 67°36' W 068°06'0 0.0 987.6 1.5-7.7
2014-Jan-05 06:00S 67°36' W 068°06'0 0.0 987.1 1.1-6.9
2014-Jan-05 05:00S 67°36' W 068°06'0 0.0 987.1 0.7-7.3
2014-Jan-05 04:00S 67°36' W 068°06'0 0.0 987.1 0.9-6.9
2014-Jan-05 03:00S 67°36' W 068°06'0 0.0 986.9 1.4-6.5
2014-Jan-05 02:00S 67°36' W 068°06'0 0.0 986.8 2.8-2.5
2014-Jan-05 01:00S 67°36' W 068°06'0 0.0 986.7 1.9-2.5
2014-Jan-05 00:00S 67°36' W 068°06'0 0.0 986.7 2.2-2.2
2014-Jan-04 23:00S 67°36' W 068°06'0 0.0 986.7 1.7-2.0
2014-Jan-04 22:00S 67°36' W 068°06'0 0.0 986.6 2.2-3.0
2014-Jan-04 21:00S 67°36' W 068°06'0 0.0 986.4 4.0-2.9
2014-Jan-04 20:00S 67°36' W 068°06'0 0.0 986.3 4.3-2.2
2014-Jan-04 19:00S 67°36' W 068°06'0 0.0 986.3 3.7-3.0
2014-Jan-04 17:00S 67°36' W 068°06'0 0.0 986.2 4.1-2.9
2014-Jan-04 16:00S 67°36' W 068°06'0 0.0 986.3 2.6-3.2
2014-Jan-04 13:00S 67°36' W 068°06'0 0.0 986.8 2.4-2.7
2014-Jan-04 12:00S 67°36' W 068°06'0 0.0 987.1 1.8-3.1
2014-Jan-04 11:00S 67°36' W 068°06'0 0.0 987.3 1.7-3.1
2014-Jan-04 10:00S 67°36' W 068°06'0 0.0 987.5 1.3-2.9
2014-Jan-04 09:00S 67°36' W 068°06'0 0.0 987.6 1.0-3.3
2014-Jan-04 08:00S 67°36' W 068°06'0 0.0 987.8 1.2-3.1
2014-Jan-04 07:00S 67°36' W 068°06'0 0.0 988.0 2.1-2.6
2014-Jan-04 06:00S 67°36' W 068°06'0 0.0 988.2 1.4-3.1
2014-Jan-04 05:00S 67°36' W 068°06'0 0.0 988.7 1.0-3.4
2014-Jan-04 04:00S 67°36' W 068°06'0 0.0 989.0 1.5-3.2
2014-Jan-04 03:00S 67°36' W 068°06'0 0.0 989.3 1.8-2.7
2014-Jan-04 02:00S 67°36' W 068°06'0 0.0 989.6 1.1-3.2
2014-Jan-04 00:00S 67°36' W 068°06'0 0.0 990.4 2.5-3.0
2014-Jan-03 23:00S 67°36' W 068°06'0 0.0 990.9 3.7-3.0
2014-Jan-03 22:00S 67°36' W 068°06'0 0.0 991.5 6.7-2.0
2014-Jan-03 21:00S 67°36' W 068°06'0 0.0 991.9 2.8-2.8
2014-Jan-03 20:00S 67°36' W 068°06'0 0.0 992.3 2.3-2.9
2014-Jan-03 18:00S 67°36' W 068°06'0 0.0 992.9 0.9-3.6
2014-Jan-03 17:00S 67°36' W 068°06'0 0.0 993.3 1.1-3.8
2014-Jan-03 16:00S 67°36' W 068°06'0 0.0 993.7 0.1-4.2
2014-Jan-03 14:00S 67°36' W 068°06'0 0.0 994.5 2.8-3.3
2014-Jan-03 13:00S 67°36' W 068°06'0 0.0 994.9 1.9-3.4
2014-Jan-03 10:00S 67°36' W 068°06'0 0.0 996.0 0.4-4.0
2014-Jan-03 09:00S 67°36' W 068°06'32 0.8 996.4 0.2-4.1
2014-Jan-01 15:00S 67°24' W 069°24'6 6.4 997.6 0.2-3.6
2014-Jan-01 14:00S 67°18' W 069°18'19 6.4 996.9 -0.2-3.2
2014-Jan-01 11:00S 67°00' W 069°00'1312.9 995.7 0.4-2.3
2014-Jan-01 10:00S 66°48' W 068°48'2010.2 995.2 0.8-2.0
2014-Jan-01 08:00S 66°36' W 068°06'6 6.5 994.5 1.5-2.6
2014-Jan-01 07:00S 66°30' W 068°00'9 4.7 994.3 0.1-2.0
2014-Jan-01 05:00S 66°24' W 067°42'1212.0 993.6 -0.6-0.6
2014-Jan-01 04:00S 66°12' W 067°42'9 9.4 993.2 -0.7-0.7
2014-Jan-01 03:00S 66°06' W 067°24'1414.1 992.8 0.2-1.7
2014-Jan-01 02:00S 65°54' W 067°06'9 9.5 992.3 0.9-1.8
2014-Jan-01 01:00S 65°48' W 066°48'2210.9 992.0 0.4-1.6
2013-Dec-31 23:00S 65°30' W 066°18'8 7.8 991.7 1.2-1.6
2013-Dec-31 22:00S 65°24' W 066°06'8 7.8 991.7 0.6-1.4
2013-Dec-31 21:00S 65°18' W 065°54'7 6.5 991.6 0.3-1.9
2013-Dec-31 20:00S 65°12' W 065°48'3 1.3 991.4 2.0-1.3
2013-Dec-31 18:00S 65°12' W 065°42'8 7.8 991.1 0.2-2.7
2013-Dec-31 17:00S 65°06' W 065°30'1211.8 991.0 0.2-2.4
2013-Dec-31 16:00S 65°00' W 065°06'1211.8 991.1 0.6-2.5
2013-Dec-31 15:00S 64°54' W 064°42'1010.2 991.2 1.3-4.3
2013-Dec-31 14:00S 64°54' W 064°18'1312.7 991.2 1.5-4.7
2013-Dec-31 13:00S 64°54' W 063°48'10 9.7 991.7 3.2-6.3
2013-Dec-31 12:00S 64°48' W 063°30'1211.9 992.6 2.4-6.4
2013-Dec-31 11:00S 64°42' W 063°06'10 9.8 993.0 2.0-4.3
2013-Dec-31 10:00S 64°36' W 062°48'3311.2 994.2 0.8-4.9
2013-Dec-31 07:00S 64°12' W 061°54'1212.3 996.1 -0.2-3.9
2013-Dec-31 06:00S 64°00' W 061°48'10 9.9 996.3 -0.2-3.6
2013-Dec-31 05:00S 63°54' W 061°30'1313.1 995.6 -0.3-3.1
2013-Dec-31 04:00S 63°42' W 061°18'3411.3 995.9 -0.4-2.6
2013-Dec-31 01:00S 63°18' W 060°24'1010.1 997.1 0.6-3.6
2013-Dec-31 00:00S 63°12' W 060°06'2613.1 997.4 1.2-3.3
2013-Dec-30 22:00S 62°54' W 059°24'1212.5 998.2 2.5-4.3
2013-Dec-30 21:00S 62°48' W 059°00'1514.6 998.8 2.6-4.4
2013-Dec-30 20:00S 62°36' W 058°42'1010.2 999.2 3.7-4.1
2013-Dec-30 19:00S 62°30' W 058°24'1312.6 999.3 2.1-5.4
2013-Dec-30 18:00S 62°24' W 058°00'1010.3 999.8 3.9-3.8
2013-Dec-30 17:00S 62°18' W 057°42'2512.3 999.9 2.3-4.2
2013-Dec-30 15:00S 62°00' W 057°06'8 8.2 1000.4 2.1-3.8
2013-Dec-30 14:00S 61°54' W 056°54'2010.0 1000.4 2.5-3.7
2013-Dec-30 12:00S 61°36' W 056°36'1313.3 1000.5 1.3-4.3
2013-Dec-30 11:00S 61°24' W 056°24'8 8.3 1000.4 0.1-4.3
2013-Dec-30 10:00S 61°18' W 056°12'1212.3 1000.4 0.3-4.1
2013-Dec-30 09:00S 61°06' W 056°06'2311.6 1000.5 1.5-3.8
2013-Dec-30 07:00S 60°48' W 055°36'2010.2 1000.6 -0.8-2.9
2013-Dec-30 05:00S 60°48' W 054°54'8 8.4 1000.9 -0.8-3.3
2013-Dec-30 04:00S 60°54' W 054°42'6 6.0 1000.9 -1.1-2.3
2013-Dec-30 03:00S 60°48' W 054°42'0 0.0 1001.0 -1.3-1.7
2013-Dec-30 02:00S 60°48' W 054°42'0 0.0 1001.1 -0.2-3.8
2013-Dec-30 01:00S 60°48' W 054°42'0 0.0 1000.9 -0.5-3.4
2013-Dec-30 00:00S 60°48' W 054°42'1211.7 1000.7 -0.9-2.8
2013-Dec-29 23:00S 60°48' W 054°18'1313.2 1000.7 -1.0-2.4
2013-Dec-29 22:00S 60°42' W 053°54'1313.2 1000.6 -0.9-2.7
2013-Dec-29 21:00S 60°36' W 053°30'1313.2 1000.3 -0.9-2.0
2013-Dec-29 20:00S 60°30' W 053°06'1211.8 -0.9-2.1
2013-Dec-29 19:00S 60°30' W 052°42'1313.3 999.7 -0.9-2.2
2013-Dec-29 18:00S 60°24' W 052°18'1110.7 999.2 -1.1-1.7
2013-Dec-29 17:00S 60°18' W 052°00'1313.3 999.0 -0.7-2.0
2013-Dec-29 16:00S 60°24' W 051°36'9 8.9 998.8 -1.3-0.3
2013-Dec-29 15:00S 60°24' W 051°18'1211.9 997.8 -1.0-1.3
2013-Dec-29 14:00S 60°24' W 050°54'1211.9 997.5 -1.1-1.6
2013-Dec-29 13:00S 60°24' W 050°30'1211.9 997.1 -1.5-1.5
2013-Dec-29 12:00S 60°24' W 050°06'1211.9 996.6 -1.8-1.6
2013-Dec-29 11:00S 60°24' W 049°42'2713.3 996.0 -1.8-1.4
2013-Dec-29 09:00S 60°24' W 048°48'1211.9 994.2 -1.7-0.6
2013-Dec-29 08:00S 60°24' W 048°24'1514.8 993.1 -1.5-0.7
2013-Dec-29 07:00S 60°24' W 047°54'12 5.9 992.3 -1.4-0.9
2013-Dec-29 05:00S 60°24' W 047°30'2412.2 990.7 -1.3-1.1
2013-Dec-29 03:00S 60°18' W 046°42'1211.9 988.9 -1.2-0.7
2013-Dec-29 02:00S 60°18' W 046°18'1211.9 988.1 -0.6-1.7
2013-Dec-29 01:00S 60°18' W 045°54'19 9.4 987.2 -1.5-0.7
2013-Dec-28 23:00S 60°24' W 045°18'7 6.7 985.8 0.4-3.3
2013-Dec-28 22:00S 60°30' W 045°12'6 3.0 985.1 0.1-3.5
2013-Dec-28 20:00S 60°36' W 045°12'3 2.9 983.8 1.0-3.1
2013-Dec-28 19:00S 60°36' W 045°06'6 6.0 983.3 0.4-2.8
2013-Dec-28 18:00S 60°42' W 045°06'6 3.0 982.8 1.4-2.3
2013-Dec-28 16:00S 60°48' W 045°06'3 2.9 981.8 -0.2-1.0
2013-Dec-28 15:00S 60°48' W 045°00'0 0.0 981.3 -0.5-1.3
2013-Dec-28 14:00S 60°48' W 045°00'0 0.0 980.6 -0.5-1.7
2013-Dec-28 13:00S 60°48' W 045°00'0 0.0 980.1 -0.7-1.1
2013-Dec-28 12:00S 60°48' W 045°00'0 0.0 979.6 -0.9-1.0
2013-Dec-28 11:00S 60°48' W 045°00'0 0.0 979.2 -1.1-0.5
2013-Dec-28 10:00S 60°48' W 045°00'0 0.0 978.9 -1.3-0.2
2013-Dec-28 09:00S 60°48' W 045°00'0 0.0 978.3 -0.7-0.7
2013-Dec-28 08:00S 60°48' W 045°00'0 0.0 977.9 -0.8-0.1
2013-Dec-28 07:00S 60°48' W 045°00'0 0.0 977.5 -1.6 0.4
2013-Dec-28 06:00S 60°48' W 045°00'0 0.0 977.1 -0.4-1.1
2013-Dec-28 05:00S 60°48' W 045°00'0 0.0 976.7 -0.3-1.1
2013-Dec-28 04:00S 60°48' W 045°00'0 0.0 976.5 -0.2-1.2
2013-Dec-28 03:00S 60°48' W 045°00'0 0.0 976.4 -0.5-0.9
2013-Dec-28 02:00S 60°48' W 045°00'   976.2 -0.1-1.4
Track history (hours):
 
Tides and Currents Weather Stations Pressure Air Temp Water Temp Dewpoint Dewpoint Depression Visibility Wind Speed Wind Dir Waves Ship Positions

Callsign AMOUK40 (name unknown)

Last reported at 2014-Jan-07 02:00 UTC. Time now 2014-Jul-22 17:29 UTC.
Position S 66°30' W 070°06'.
Warning: this ship's position is months out of date.

Barometer 993.6 mb
Air temperature -1.1 ° C
Dewpoint -1.6 ° C

Date/timePositionNaut miles runAvg speedWind from/ knotsBaromVisibWave heightAir tempDewpointWater temp
2014-Jan-07 02:00S 66°30' W 070°06'6 6.5 993.6 -1.1-1.6
2014-Jan-07 01:00S 66°36' W 070°12'2 2.4 993.2 -1.0-1.7
2014-Jan-07 00:00S 66°36' W 070°18'2 2.4 992.9 -0.8-1.6
2014-Jan-06 23:00S 66°36' W 070°24'0 0.0 992.9 -3.6
2014-Jan-06 22:00S 66°36' W 070°24'0 0.0 992.7 -0.2-3.2
2014-Jan-06 19:00S 66°36' W 070°24'6 6.5 991.7 0.7-3.6
2014-Jan-06 18:00S 66°42' W 070°30'6 6.5 991.5 1.2-3.6
2014-Jan-06 17:00S 66°36' W 070°36'82 2.8 991.4 0.9-3.8
2014-Jan-05 12:00S 67°36' W 068°12'2 2.3 988.5 0.5-7.7
2014-Jan-05 11:00S 67°36' W 068°06'0 0.0 988.3 2.0-7.0
2014-Jan-05 10:00S 67°36' W 068°06'0 0.0 988.2 1.5-7.3
2014-Jan-05 09:00S 67°36' W 068°06'0 0.0 987.9 1.2-6.8
2014-Jan-05 08:00S 67°36' W 068°06'0 0.0 987.6 1.5-7.7
2014-Jan-05 06:00S 67°36' W 068°06'0 0.0 987.1 1.1-6.9
2014-Jan-05 05:00S 67°36' W 068°06'0 0.0 987.1 0.7-7.3
2014-Jan-05 04:00S 67°36' W 068°06'0 0.0 987.1 0.9-6.9
2014-Jan-05 03:00S 67°36' W 068°06'0 0.0 986.9 1.4-6.5
2014-Jan-05 02:00S 67°36' W 068°06'0 0.0 986.8 2.8-2.5
2014-Jan-05 01:00S 67°36' W 068°06'0 0.0 986.7 1.9-2.5
2014-Jan-05 00:00S 67°36' W 068°06'0 0.0 986.7 2.2-2.2
2014-Jan-04 23:00S 67°36' W 068°06'0 0.0 986.7 1.7-2.0
2014-Jan-04 22:00S 67°36' W 068°06'0 0.0 986.6 2.2-3.0
2014-Jan-04 21:00S 67°36' W 068°06'0 0.0 986.4 4.0-2.9
2014-Jan-04 20:00S 67°36' W 068°06'0 0.0 986.3 4.3-2.2
2014-Jan-04 19:00S 67°36' W 068°06'0 0.0 986.3 3.7-3.0
2014-Jan-04 17:00S 67°36' W 068°06'0 0.0 986.2 4.1-2.9
2014-Jan-04 16:00S 67°36' W 068°06'0 0.0 986.3 2.6-3.2
2014-Jan-04 13:00S 67°36' W 068°06'0 0.0 986.8 2.4-2.7
2014-Jan-04 12:00S 67°36' W 068°06'0 0.0 987.1 1.8-3.1
2014-Jan-04 11:00S 67°36' W 068°06'0 0.0 987.3 1.7-3.1
2014-Jan-04 10:00S 67°36' W 068°06'0 0.0 987.5 1.3-2.9
2014-Jan-04 09:00S 67°36' W 068°06'0 0.0 987.6 1.0-3.3
2014-Jan-04 08:00S 67°36' W 068°06'0 0.0 987.8 1.2-3.1
2014-Jan-04 07:00S 67°36' W 068°06'0 0.0 988.0 2.1-2.6
2014-Jan-04 06:00S 67°36' W 068°06'0 0.0 988.2 1.4-3.1
2014-Jan-04 05:00S 67°36' W 068°06'0 0.0 988.7 1.0-3.4
2014-Jan-04 04:00S 67°36' W 068°06'0 0.0 989.0 1.5-3.2
2014-Jan-04 03:00S 67°36' W 068°06'0 0.0 989.3 1.8-2.7
2014-Jan-04 02:00S 67°36' W 068°06'0 0.0 989.6 1.1-3.2
2014-Jan-04 00:00S 67°36' W 068°06'0 0.0 990.4 2.5-3.0
2014-Jan-03 23:00S 67°36' W 068°06'0 0.0 990.9 3.7-3.0
2014-Jan-03 22:00S 67°36' W 068°06'0 0.0 991.5 6.7-2.0
2014-Jan-03 21:00S 67°36' W 068°06'0 0.0 991.9 2.8-2.8
2014-Jan-03 20:00S 67°36' W 068°06'0 0.0 992.3 2.3-2.9
2014-Jan-03 18:00S 67°36' W 068°06'0 0.0 992.9 0.9-3.6
2014-Jan-03 17:00S 67°36' W 068°06'0 0.0 993.3 1.1-3.8
2014-Jan-03 16:00S 67°36' W 068°06'0 0.0 993.7 0.1-4.2
2014-Jan-03 14:00S 67°36' W 068°06'0 0.0 994.5 2.8-3.3
2014-Jan-03 13:00S 67°36' W 068°06'0 0.0 994.9 1.9-3.4
2014-Jan-03 10:00S 67°36' W 068°06'0 0.0 996.0 0.4-4.0
2014-Jan-03 09:00S 67°36' W 068°06'32 0.8 996.4 0.2-4.1
2014-Jan-01 15:00S 67°24' W 069°24'6 6.4 997.6 0.2-3.6
2014-Jan-01 14:00S 67°18' W 069°18'19 6.4 996.9 -0.2-3.2
2014-Jan-01 11:00S 67°00' W 069°00'1312.9 995.7 0.4-2.3
2014-Jan-01 10:00S 66°48' W 068°48'2010.2 995.2 0.8-2.0
2014-Jan-01 08:00S 66°36' W 068°06'6 6.5 994.5 1.5-2.6
2014-Jan-01 07:00S 66°30' W 068°00'9 4.7 994.3 0.1-2.0
2014-Jan-01 05:00S 66°24' W 067°42'1212.0 993.6 -0.6-0.6
2014-Jan-01 04:00S 66°12' W 067°42'9 9.4 993.2 -0.7-0.7
2014-Jan-01 03:00S 66°06' W 067°24'1414.1 992.8 0.2-1.7
2014-Jan-01 02:00S 65°54' W 067°06'9 9.5 992.3 0.9-1.8
2014-Jan-01 01:00S 65°48' W 066°48'2210.9 992.0 0.4-1.6
2013-Dec-31 23:00S 65°30' W 066°18'8 7.8 991.7 1.2-1.6
2013-Dec-31 22:00S 65°24' W 066°06'8 7.8 991.7 0.6-1.4
2013-Dec-31 21:00S 65°18' W 065°54'7 6.5 991.6 0.3-1.9
2013-Dec-31 20:00S 65°12' W 065°48'3 1.3 991.4 2.0-1.3
2013-Dec-31 18:00S 65°12' W 065°42'8 7.8 991.1 0.2-2.7
2013-Dec-31 17:00S 65°06' W 065°30'1211.8 991.0 0.2-2.4
2013-Dec-31 16:00S 65°00' W 065°06'1211.8 991.1 0.6-2.5
2013-Dec-31 15:00S 64°54' W 064°42'1010.2 991.2 1.3-4.3
2013-Dec-31 14:00S 64°54' W 064°18'1312.7 991.2 1.5-4.7
2013-Dec-31 13:00S 64°54' W 063°48'10 9.7 991.7 3.2-6.3
2013-Dec-31 12:00S 64°48' W 063°30'1211.9 992.6 2.4-6.4
2013-Dec-31 11:00S 64°42' W 063°06'10 9.8 993.0 2.0-4.3
2013-Dec-31 10:00S 64°36' W 062°48'3311.2 994.2 0.8-4.9
2013-Dec-31 07:00S 64°12' W 061°54'1212.3 996.1 -0.2-3.9
2013-Dec-31 06:00S 64°00' W 061°48'10 9.9 996.3 -0.2-3.6
2013-Dec-31 05:00S 63°54' W 061°30'1313.1 995.6 -0.3-3.1
2013-Dec-31 04:00S 63°42' W 061°18'3411.3 995.9 -0.4-2.6
2013-Dec-31 01:00S 63°18' W 060°24'1010.1 997.1 0.6-3.6
2013-Dec-31 00:00S 63°12' W 060°06'2613.1 997.4 1.2-3.3
2013-Dec-30 22:00S 62°54' W 059°24'1212.5 998.2 2.5-4.3
2013-Dec-30 21:00S 62°48' W 059°00'1514.6 998.8 2.6-4.4
2013-Dec-30 20:00S 62°36' W 058°42'1010.2 999.2 3.7-4.1
2013-Dec-30 19:00S 62°30' W 058°24'1312.6 999.3 2.1-5.4
2013-Dec-30 18:00S 62°24' W 058°00'1010.3 999.8 3.9-3.8
2013-Dec-30 17:00S 62°18' W 057°42'2512.3 999.9 2.3-4.2
2013-Dec-30 15:00S 62°00' W 057°06'8 8.2 1000.4 2.1-3.8
2013-Dec-30 14:00S 61°54' W 056°54'2010.0 1000.4 2.5-3.7
2013-Dec-30 12:00S 61°36' W 056°36'1313.3 1000.5 1.3-4.3
2013-Dec-30 11:00S 61°24' W 056°24'8 8.3 1000.4 0.1-4.3
2013-Dec-30 10:00S 61°18' W 056°12'1212.3 1000.4 0.3-4.1
2013-Dec-30 09:00S 61°06' W 056°06'2311.6 1000.5 1.5-3.8
2013-Dec-30 07:00S 60°48' W 055°36'2010.2 1000.6 -0.8-2.9
2013-Dec-30 05:00S 60°48' W 054°54'8 8.4 1000.9 -0.8-3.3
2013-Dec-30 04:00S 60°54' W 054°42'6 6.0 1000.9 -1.1-2.3
2013-Dec-30 03:00S 60°48' W 054°42'0 0.0 1001.0 -1.3-1.7
2013-Dec-30 02:00S 60°48' W 054°42'0 0.0 1001.1 -0.2-3.8
2013-Dec-30 01:00S 60°48' W 054°42'0 0.0 1000.9 -0.5-3.4
2013-Dec-30 00:00S 60°48' W 054°42'1211.7 1000.7 -0.9-2.8
2013-Dec-29 23:00S 60°48' W 054°18'1313.2 1000.7 -1.0-2.4
2013-Dec-29 22:00S 60°42' W 053°54'1313.2 1000.6 -0.9-2.7
2013-Dec-29 21:00S 60°36' W 053°30'1313.2 1000.3 -0.9-2.0
2013-Dec-29 20:00S 60°30' W 053°06'1211.8 -0.9-2.1
2013-Dec-29 19:00S 60°30' W 052°42'1313.3 999.7 -0.9-2.2
2013-Dec-29 18:00S 60°24' W 052°18'1110.7 999.2 -1.1-1.7
2013-Dec-29 17:00S 60°18' W 052°00'1313.3 999.0 -0.7-2.0
2013-Dec-29 16:00S 60°24' W 051°36'9 8.9 998.8 -1.3-0.3
2013-Dec-29 15:00S 60°24' W 051°18'1211.9 997.8 -1.0-1.3
2013-Dec-29 14:00S 60°24' W 050°54'1211.9 997.5 -1.1-1.6
2013-Dec-29 13:00S 60°24' W 050°30'1211.9 997.1 -1.5-1.5
2013-Dec-29 12:00S 60°24' W 050°06'1211.9 996.6 -1.8-1.6
2013-Dec-29 11:00S 60°24' W 049°42'2713.3 996.0 -1.8-1.4
2013-Dec-29 09:00S 60°24' W 048°48'1211.9 994.2 -1.7-0.6
2013-Dec-29 08:00S 60°24' W 048°24'1514.8 993.1 -1.5-0.7
2013-Dec-29 07:00S 60°24' W 047°54'12 5.9 992.3 -1.4-0.9
2013-Dec-29 05:00S 60°24' W 047°30'2412.2 990.7 -1.3-1.1
2013-Dec-29 03:00S 60°18' W 046°42'1211.9 988.9 -1.2-0.7
2013-Dec-29 02:00S 60°18' W 046°18'1211.9 988.1 -0.6-1.7
2013-Dec-29 01:00S 60°18' W 045°54'19 9.4 987.2 -1.5-0.7
2013-Dec-28 23:00S 60°24' W 045°18'7 6.7 985.8 0.4-3.3
2013-Dec-28 22:00S 60°30' W 045°12'6 3.0 985.1 0.1-3.5
2013-Dec-28 20:00S 60°36' W 045°12'3 2.9 983.8 1.0-3.1
2013-Dec-28 19:00S 60°36' W 045°06'6 6.0 983.3 0.4-2.8
2013-Dec-28 18:00S 60°42' W 045°06'6 3.0 982.8 1.4-2.3
2013-Dec-28 16:00S 60°48' W 045°06'3 2.9 981.8 -0.2-1.0
2013-Dec-28 15:00S 60°48' W 045°00'0 0.0 981.3 -0.5-1.3
2013-Dec-28 14:00S 60°48' W 045°00'0 0.0 980.6 -0.5-1.7
2013-Dec-28 13:00S 60°48' W 045°00'0 0.0 980.1 -0.7-1.1
2013-Dec-28 12:00S 60°48' W 045°00'0 0.0 979.6 -0.9-1.0
2013-Dec-28 11:00S 60°48' W 045°00'0 0.0 979.2 -1.1-0.5
2013-Dec-28 10:00S 60°48' W 045°00'0 0.0 978.9 -1.3-0.2
2013-Dec-28 09:00S 60°48' W 045°00'0 0.0 978.3 -0.7-0.7
2013-Dec-28 08:00S 60°48' W 045°00'0 0.0 977.9 -0.8-0.1
2013-Dec-28 07:00S 60°48' W 045°00'0 0.0 977.5 -1.6 0.4
2013-Dec-28 06:00S 60°48' W 045°00'0 0.0 977.1 -0.4-1.1
2013-Dec-28 05:00S 60°48' W 045°00'0 0.0 976.7 -0.3-1.1
2013-Dec-28 04:00S 60°48' W 045°00'0 0.0 976.5 -0.2-1.2
2013-Dec-28 03:00S 60°48' W 045°00'0 0.0 976.4 -0.5-0.9
2013-Dec-28 02:00S 60°48' W 045°00'   976.2 -0.1-1.4

Dump ship's entire track history